Time;durP1;ratioP1;P1;durP2;ratioP2;P2;SDS_P1;SDS_P2;PMS_P1;PMS_P2;Temp;Humidity;BMP_temperature;BMP_pressure;BME280_temperature;BME280_humidity;BME280_pressure;Samples;Min_cycle;Max_cycle;Signal;HPM_P1;HPM_P2
2022/09/24 00:01:19;;;;;;;37.70;31.05;;;15.80;99.90;;;;;;4977297;28;92526;-74
2022/09/24 00:03:52;;;;;;;36.50;32.53;;;15.80;99.90;;;;;;4992287;28;95765;-74
2022/09/24 00:06:19;;;;;;;38.10;34.00;;;15.80;99.90;;;;;;4993345;28;95522;-74
2022/09/24 00:08:49;;;;;;;38.10;32.83;;;15.70;99.90;;;;;;4994970;28;92307;-74
2022/09/24 00:11:18;;;;;;;40.03;33.63;;;15.70;99.90;;;;;;4994806;28;92480;-74
2022/09/24 00:13:49;;;;;;;40.72;34.20;;;15.70;99.90;;;;;;4993587;28;94006;-74
2022/09/24 00:16:18;;;;;;;47.50;35.97;;;15.70;99.90;;;;;;4993628;28;95562;-74
2022/09/24 00:18:46;;;;;;;43.88;34.55;;;15.70;99.90;;;;;;4993620;28;99743;-74
2022/09/24 00:21:22;;;;;;;43.53;35.17;;;15.70;99.90;;;;;;4995422;28;92178;-74
2022/09/24 00:23:51;;;;;;;44.30;36.10;;;15.70;99.90;;;;;;4993875;28;93189;-74
2022/09/24 00:29:06;;;;;;;46.92;37.25;;;15.70;99.90;;;;;;4992137;28;95067;-74
2022/09/24 00:31:32;;;;;;;45.03;38.28;;;15.60;99.90;;;;;;4994841;28;92421;-74
2022/09/24 00:34:00;;;;;;;39.10;34.83;;;15.70;99.90;;;;;;4993237;28;95812;-74
2022/09/24 00:36:27;;;;;;;43.97;36.03;;;15.60;99.90;;;;;;4995436;28;92971;-74
2022/09/24 00:38:57;;;;;;;42.28;37.25;;;15.60;99.90;;;;;;4996594;28;93211;-74
2022/09/24 00:41:27;;;;;;;48.22;37.30;;;15.60;99.90;;;;;;4997784;28;93050;-74
2022/09/24 00:43:54;;;;;;;48.78;38.53;;;15.70;99.90;;;;;;4997822;28;93307;-74
2022/09/24 00:46:24;;;;;;;44.72;38.38;;;15.70;99.90;;;;;;4998321;28;93096;-74
2022/09/24 00:48:56;;;;;;;49.35;38.65;;;15.70;99.90;;;;;;4996720;28;92736;-74
2022/09/24 00:51:26;;;;;;;42.47;36.22;;;15.70;99.90;;;;;;4998125;28;93383;-74
2022/09/24 00:53:59;;;;;;;43.15;36.78;;;15.70;99.90;;;;;;4995380;28;98447;-74
2022/09/24 00:56:28;;;;;;;48.07;39.37;;;15.70;99.90;;;;;;4997673;28;95486;-74
2022/09/24 00:58:57;;;;;;;43.50;38.45;;;15.70;99.90;;;;;;4996403;28;92469;-74
2022/09/24 01:01:24;;;;;;;46.72;39.95;;;15.70;99.90;;;;;;4997819;28;92439;-74
2022/09/24 01:03:55;;;;;;;49.28;41.33;;;15.70;99.90;;;;;;4996223;28;95679;-74
2022/09/24 01:06:23;;;;;;;51.42;41.63;;;15.70;99.90;;;;;;4996595;28;93021;-74
2022/09/24 01:08:51;;;;;;;53.42;41.60;;;15.70;99.90;;;;;;4995928;28;92578;-74
2022/09/24 01:11:23;;;;;;;48.47;39.15;;;15.70;99.90;;;;;;4998134;28;91718;-74
2022/09/24 01:14:14;;;;;;;48.95;41.53;;;15.80;99.90;;;;;;4996284;28;93603;-74
2022/09/24 01:17:04;;;;;;;47.40;40.42;;;15.80;99.90;;;;;;4996042;28;92977;-74
2022/09/24 01:19:56;;;;;;;51.92;40.60;;;15.80;99.90;;;;;;4994461;28;94911;-74
2022/09/24 01:22:37;;;;;;;51.85;40.22;;;15.80;99.90;;;;;;4997612;28;93042;-74
2022/09/24 01:25:23;;;;;;;50.83;41.45;;;15.70;99.90;;;;;;4997048;28;93245;-74
2022/09/24 01:28:14;;;;;;;46.97;39.35;;;15.70;99.90;;;;;;4997052;28;93059;-74
2022/09/24 01:30:42;;;;;;;53.28;42.97;;;15.70;99.90;;;;;;4997300;28;92408;-74
2022/09/24 01:33:15;;;;;;;50.70;41.60;;;15.60;99.90;;;;;;4996231;28;93185;-74
2022/09/24 01:35:47;;;;;;;55.80;42.17;;;15.70;99.90;;;;;;4995530;28;96402;-74
2022/09/24 01:38:37;;;;;;;54.00;42.78;;;15.70;99.90;;;;;;4997624;28;93114;-74
2022/09/24 01:41:08;;;;;;;51.13;42.28;;;15.70;99.90;;;;;;4997135;28;92337;-74
2022/09/24 01:43:35;;;;;;;50.35;40.80;;;15.60;99.90;;;;;;4995936;28;92563;-74
2022/09/24 01:46:05;;;;;;;57.67;43.28;;;15.60;99.90;;;;;;4995540;28;95677;-74
2022/09/24 01:48:36;;;;;;;55.88;44.78;;;15.60;99.90;;;;;;4996150;28;96520;-74
2022/09/24 01:51:07;;;;;;;59.35;43.85;;;15.60;99.90;;;;;;4997054;28;92564;-74
2022/09/24 01:54:05;;;;;;;63.08;44.67;;;15.60;99.90;;;;;;4996649;28;92465;-74
2022/09/24 01:56:40;;;;;;;58.33;44.30;;;15.70;99.90;;;;;;4974783;28;94518;-74
2022/09/24 01:59:15;;;;;;;53.05;42.40;;;15.60;99.90;;;;;;4996832;28;92479;-74
2022/09/24 02:01:55;;;;;;;58.35;44.83;;;15.70;99.90;;;;;;4996802;28;92487;-74
2022/09/24 02:04:26;;;;;;;58.08;42.67;;;15.70;99.90;;;;;;4995766;28;91774;-74
2022/09/24 02:07:00;;;;;;;57.85;44.80;;;15.60;99.90;;;;;;4996535;28;93039;-74
2022/09/24 02:09:33;;;;;;;55.50;46.45;;;15.60;99.90;;;;;;4996440;28;92918;-74
2022/09/24 02:12:11;;;;;;;59.37;44.83;;;15.60;99.90;;;;;;4977500;28;94947;-74
2022/09/24 02:14:45;;;;;;;56.38;42.63;;;15.70;99.90;;;;;;4996536;28;92989;-74
2022/09/24 02:17:13;;;;;;;62.42;44.15;;;15.60;99.90;;;;;;4995090;28;94210;-74
2022/09/24 02:19:41;;;;;;;55.15;43.38;;;15.60;99.90;;;;;;4995958;28;92949;-74
2022/09/24 02:22:11;;;;;;;59.95;45.30;;;15.60;99.90;;;;;;4995003;28;93391;-74
2022/09/24 02:24:41;;;;;;;57.35;43.55;;;15.60;99.90;;;;;;4994555;28;92481;-74
2022/09/24 02:27:08;;;;;;;59.45;44.30;;;15.60;99.90;;;;;;4995741;28;103836;-74
2022/09/24 02:29:35;;;;;;;59.42;45.75;;;15.60;99.90;;;;;;4996649;28;92968;-74
2022/09/24 02:32:05;;;;;;;58.47;45.83;;;15.60;99.90;;;;;;4978419;28;92572;-74
2022/09/24 02:34:46;;;;;;;61.67;44.15;;;15.60;99.90;;;;;;4996191;28;92450;-74
2022/09/24 02:37:15;;;;;;;55.90;44.22;;;15.60;99.90;;;;;;4994061;28;95543;-74
2022/09/24 02:39:42;;;;;;;63.03;47.03;;;15.60;99.90;;;;;;4994711;28;95548;-74
2022/09/24 02:42:12;;;;;;;57.53;43.90;;;15.60;99.90;;;;;;4978254;28;92748;-74
2022/09/24 02:44:39;;;;;;;59.55;44.05;;;15.50;99.90;;;;;;4996382;28;92351;-74
2022/09/24 02:47:07;;;;;;;64.47;45.70;;;15.60;99.90;;;;;;4978376;28;93170;-74
2022/09/24 02:49:33;;;;;;;57.83;45.85;;;15.50;99.90;;;;;;4994889;28;92985;-74
2022/09/24 02:52:01;;;;;;;63.35;44.38;;;15.50;99.90;;;;;;4978396;28;92503;-74
2022/09/24 02:54:28;;;;;;;55.55;43.40;;;15.50;99.90;;;;;;4996416;28;91821;-74
2022/09/24 02:56:54;;;;;;;56.45;42.78;;;15.50;99.90;;;;;;4995845;28;93195;-74
2022/09/24 02:59:21;;;;;;;61.42;45.65;;;15.60;99.90;;;;;;4995491;28;92928;-74
2022/09/24 03:01:49;;;;;;;53.50;41.95;;;15.50;99.90;;;;;;4994621;28;94738;-74
2022/09/24 03:04:16;;;;;;;58.67;44.42;;;15.50;99.90;;;;;;4977998;28;92502;-74
2022/09/24 03:06:43;;;;;;;62.08;44.58;;;15.50;99.90;;;;;;4977710;28;95866;-74
2022/09/24 03:09:13;;;;;;;56.47;43.25;;;15.50;99.90;;;;;;4994431;28;93737;-74
2022/09/24 03:11:40;;;;;;;57.78;41.75;;;15.50;99.90;;;;;;4978268;28;92643;-74
2022/09/24 03:14:07;;;;;;;60.60;43.58;;;15.40;99.90;;;;;;4994223;28;92549;-74
2022/09/24 03:16:34;;;;;;;62.22;46.83;;;15.40;99.90;;;;;;4977755;28;95944;-74
2022/09/24 03:19:01;;;;;;;62.00;45.35;;;15.40;99.90;;;;;;4995057;28;93277;-74
2022/09/24 03:21:28;;;;;;;58.85;44.22;;;15.40;99.90;;;;;;4994695;28;92748;-74
2022/09/24 03:23:55;;;;;;;60.05;42.75;;;15.40;99.90;;;;;;4995500;28;92503;-74
2022/09/24 03:26:22;;;;;;;59.03;44.05;;;15.40;99.90;;;;;;4994174;28;95431;-74
2022/09/24 03:28:49;;;;;;;65.25;44.58;;;15.30;99.90;;;;;;4993564;28;98249;-74
2022/09/24 03:31:16;;;;;;;64.45;44.90;;;15.30;99.90;;;;;;4977648;28;92975;-74
2022/09/24 03:33:48;;;;;;;62.05;44.47;;;15.30;99.90;;;;;;4995216;28;99640;-75
2022/09/24 03:36:23;;;;;;;62.47;44.38;;;15.30;99.90;;;;;;4995625;28;93466;-74
2022/09/24 03:38:56;;;;;;;63.42;44.22;;;15.30;99.90;;;;;;4995015;28;92469;-74
2022/09/24 03:41:26;;;;;;;60.75;43.83;;;15.30;99.90;;;;;;4995391;28;92431;-74
2022/09/24 03:43:54;;;;;;;61.97;45.30;;;15.30;99.90;;;;;;4995360;28;91708;-74
2022/09/24 03:46:23;;;;;;;58.83;44.15;;;15.30;99.90;;;;;;4993968;28;95971;-74
2022/09/24 03:48:50;;;;;;;59.88;44.40;;;15.40;99.90;;;;;;4993672;28;93149;-74
2022/09/24 03:51:18;;;;;;;56.83;42.78;;;15.40;99.90;;;;;;4994066;28;94853;-74
2022/09/24 03:53:46;;;;;;;56.33;41.72;;;15.40;99.90;;;;;;4993578;28;92496;-74
2022/09/24 03:56:14;;;;;;;59.63;43.55;;;15.40;99.90;;;;;;4994806;28;92456;-74
2022/09/24 03:58:46;;;;;;;59.60;44.28;;;15.40;99.90;;;;;;4993903;28;92448;-74
2022/09/24 04:01:18;;;;;;;61.97;42.65;;;15.40;99.90;;;;;;4993865;28;92485;-74
2022/09/24 04:03:45;;;;;;;56.95;41.88;;;15.40;99.90;;;;;;4978386;28;92562;-74
2022/09/24 04:06:12;;;;;;;57.72;43.45;;;15.40;99.90;;;;;;4993342;28;97976;-74
2022/09/24 04:08:39;;;;;;;56.97;42.72;;;15.40;99.90;;;;;;4993670;28;96094;-74
2022/09/24 04:11:06;;;;;;;63.60;43.75;;;15.40;99.90;;;;;;4996643;28;93311;-74
2022/09/24 04:13:33;;;;;;;58.90;43.30;;;15.40;99.90;;;;;;4998662;28;92393;-74
2022/09/24 04:16:03;;;;;;;62.30;44.88;;;15.40;99.90;;;;;;4997269;28;95859;-74
2022/09/24 04:18:30;;;;;;;61.85;42.83;;;15.50;99.90;;;;;;4997951;28;95430;-74
2022/09/24 04:21:00;;;;;;;67.43;43.70;;;15.40;99.90;;;;;;4997856;28;92465;-74
2022/09/24 04:23:30;;;;;;;64.03;44.35;;;15.40;99.90;;;;;;4997037;28;93005;-74
2022/09/24 04:26:00;;;;;;;62.05;43.20;;;15.40;99.90;;;;;;4980304;28;94418;-74
2022/09/24 04:28:29;;;;;;;67.40;43.90;;;15.40;99.90;;;;;;4998321;28;93149;-74
2022/09/24 04:30:56;;;;;;;63.00;43.75;;;15.40;99.90;;;;;;4997817;28;102029;-74
2022/09/24 04:33:23;;;;;;;62.50;42.35;;;15.40;99.90;;;;;;4998544;28;91603;-74
2022/09/24 04:35:50;;;;;;;60.55;42.88;;;15.40;99.90;;;;;;4998145;28;93226;-74
2022/09/24 04:38:18;;;;;;;59.03;43.35;;;15.40;99.90;;;;;;4980221;28;95579;-74
2022/09/24 04:40:46;;;;;;;67.50;45.15;;;15.40;99.90;;;;;;4995620;28;94791;-74
2022/09/24 04:43:13;;;;;;;63.00;44.33;;;15.50;99.90;;;;;;4998000;28;92577;-74
2022/09/24 04:45:42;;;;;;;64.20;43.88;;;15.50;99.90;;;;;;4996647;28;95809;-74
2022/09/24 04:48:10;;;;;;;61.00;42.58;;;15.50;99.90;;;;;;4997766;28;93567;-74
2022/09/24 04:50:37;;;;;;;62.47;45.83;;;15.50;99.90;;;;;;4997853;28;92338;-74
2022/09/24 04:53:09;;;;;;;59.72;44.08;;;15.50;99.90;;;;;;4980434;28;92545;-74
2022/09/24 04:55:35;;;;;;;59.78;43.38;;;15.50;99.90;;;;;;4997719;28;93377;-74
2022/09/24 04:58:02;;;;;;;59.67;43.83;;;15.50;99.90;;;;;;4980439;28;99886;-74
2022/09/24 05:00:31;;;;;;;58.08;42.00;;;15.50;99.90;;;;;;4997819;28;92469;-74
2022/09/24 05:03:02;;;;;;;68.25;44.95;;;15.50;99.90;;;;;;4996370;28;92603;-74
2022/09/24 05:05:31;;;;;;;62.78;44.40;;;15.50;99.90;;;;;;4994980;28;98551;-74
2022/09/24 05:07:58;;;;;;;60.25;44.55;;;15.50;99.90;;;;;;4996292;28;95619;-74
2022/09/24 05:10:26;;;;;;;60.00;43.22;;;15.50;99.90;;;;;;4996040;28;92448;-74
2022/09/24 05:12:53;;;;;;;60.40;42.50;;;15.50;99.90;;;;;;4979825;28;92476;-74
2022/09/24 05:15:20;;;;;;;61.78;42.15;;;15.60;99.90;;;;;;4997225;28;93273;-74
2022/09/24 05:17:47;;;;;;;63.45;45.33;;;15.60;99.90;;;;;;4995931;28;93103;-74
2022/09/24 05:20:15;;;;;;;57.90;42.20;;;15.60;99.90;;;;;;4996126;28;93746;-74
2022/09/24 05:22:48;;;;;;;63.05;43.25;;;15.60;99.90;;;;;;4979593;28;91779;-74
2022/09/24 05:25:17;;;;;;;63.50;44.80;;;15.60;99.90;;;;;;4996119;28;93216;-74
2022/09/24 05:27:45;;;;;;;61.30;44.08;;;15.60;99.90;;;;;;4997093;28;93978;-74
2022/09/24 05:30:13;;;;;;;63.50;43.38;;;15.60;99.90;;;;;;4994517;28;95398;-74
2022/09/24 05:32:40;;;;;;;55.58;42.33;;;15.60;99.90;;;;;;4997526;28;92432;-74
2022/09/24 05:35:08;;;;;;;59.17;44.92;;;15.60;99.90;;;;;;4995715;28;93251;-74
2022/09/24 05:37:36;;;;;;;62.95;43.22;;;15.60;99.90;;;;;;4996068;28;93297;-74
2022/09/24 05:42:51;;;;;;;60.33;43.65;;;15.60;99.90;;;;;;4997448;28;92366;-74
2022/09/24 05:45:17;;;;;;;58.78;43.65;;;15.60;99.90;;;;;;4997119;28;93353;-74
2022/09/24 05:47:45;;;;;;;61.10;44.00;;;15.60;99.90;;;;;;4996171;28;92803;-74
2022/09/24 05:50:13;;;;;;;68.18;45.33;;;15.60;99.90;;;;;;4997142;28;92427;-74
2022/09/24 05:52:40;;;;;;;58.92;43.35;;;15.60;99.90;;;;;;4995831;28;92613;-74
2022/09/24 05:55:09;;;;;;;56.40;43.50;;;15.70;99.90;;;;;;4995254;28;95593;-74
2022/09/24 05:57:36;;;;;;;65.60;43.95;;;15.60;99.90;;;;;;4996438;28;106076;-74
2022/09/24 06:00:04;;;;;;;61.05;42.65;;;15.60;99.90;;;;;;4996822;28;93198;-74
2022/09/24 06:02:37;;;;;;;63.35;44.28;;;15.70;99.90;;;;;;4996493;28;92905;-74
2022/09/24 06:05:05;;;;;;;63.63;45.05;;;15.70;99.90;;;;;;4996687;28;92479;-74
2022/09/24 06:07:32;;;;;;;64.15;45.10;;;15.70;99.90;;;;;;4995468;28;92477;-74
2022/09/24 06:09:59;;;;;;;65.63;45.28;;;15.70;99.90;;;;;;4995287;28;92512;-74
2022/09/24 06:12:27;;;;;;;71.70;46.95;;;15.70;99.90;;;;;;4996960;28;91704;-74
2022/09/24 06:14:54;;;;;;;64.10;44.33;;;15.70;99.90;;;;;;4995557;28;93277;-74
2022/09/24 06:17:21;;;;;;;63.47;44.72;;;15.70;99.90;;;;;;4994823;28;92508;-74
2022/09/24 06:19:47;;;;;;;62.00;43.90;;;15.70;99.90;;;;;;4995606;28;94867;-74
2022/09/24 06:22:14;;;;;;;59.95;43.15;;;15.70;99.90;;;;;;4996475;28;92367;-74
2022/09/24 06:24:41;;;;;;;63.88;45.83;;;15.70;99.90;;;;;;4995174;28;93168;-74
2022/09/24 06:27:08;;;;;;;68.38;46.78;;;15.70;99.90;;;;;;4978544;28;95508;-74
2022/09/24 06:29:35;;;;;;;63.22;44.15;;;15.70;99.90;;;;;;4996754;28;92442;-74
2022/09/24 06:32:02;;;;;;;65.32;45.40;;;15.70;99.90;;;;;;4996580;28;92765;-74
2022/09/24 06:34:29;;;;;;;69.50;46.45;;;15.70;99.90;;;;;;4995039;28;93225;-74
2022/09/24 06:36:56;;;;;;;68.18;47.55;;;15.80;99.90;;;;;;4995061;28;95673;-74
2022/09/24 06:39:26;;;;;;;69.80;46.17;;;15.80;99.90;;;;;;4978098;28;92531;-74
2022/09/24 06:41:53;;;;;;;64.93;45.53;;;15.80;99.90;;;;;;4995899;28;96247;-74
2022/09/24 06:44:21;;;;;;;67.00;45.13;;;15.70;99.90;;;;;;4993346;28;97708;-74
2022/09/24 06:46:48;;;;;;;70.10;46.22;;;15.80;99.90;;;;;;4994805;28;95328;-74
2022/09/24 06:49:14;;;;;;;75.90;47.72;;;15.80;99.90;;;;;;4977967;28;92835;-74
2022/09/24 06:51:41;;;;;;;62.97;45.13;;;15.90;99.90;;;;;;4996002;28;92417;-74
2022/09/24 06:54:08;;;;;;;58.75;43.40;;;15.90;99.90;;;;;;4978152;28;95873;-74
2022/09/24 06:56:35;;;;;;;56.25;42.78;;;16.00;99.90;;;;;;4994164;28;95841;-74
2022/09/24 06:59:02;;;;;;;56.70;41.88;;;16.00;99.90;;;;;;4996032;28;92445;-74
2022/09/24 07:01:29;;;;;;;56.65;43.30;;;16.00;99.90;;;;;;4994542;28;92215;-74
2022/09/24 07:03:56;;;;;;;61.30;43.58;;;16.10;99.90;;;;;;4995700;28;93350;-74
2022/09/24 07:06:23;;;;;;;64.68;44.58;;;16.10;99.90;;;;;;4977492;28;93294;-74
2022/09/24 07:08:50;;;;;;;55.92;42.55;;;16.20;99.90;;;;;;4994853;28;96208;-74
2022/09/24 07:11:17;;;;;;;53.00;40.78;;;16.20;99.90;;;;;;4995515;28;92491;-74
2022/09/24 07:13:44;;;;;;;53.58;41.00;;;16.30;99.90;;;;;;4995912;28;92972;-74
2022/09/24 07:16:11;;;;;;;54.15;43.22;;;16.30;99.90;;;;;;4993941;28;93064;-74
2022/09/24 07:18:38;;;;;;;45.33;37.03;;;16.30;99.90;;;;;;4994534;28;105824;-74
2022/09/24 07:21:06;;;;;;;53.53;41.28;;;16.40;99.90;;;;;;4995487;28;93061;-74
2022/09/24 07:23:33;;;;;;;50.33;38.78;;;16.40;99.90;;;;;;4994111;28;93175;-74
2022/09/24 07:26:00;;;;;;;57.72;41.70;;;16.40;99.90;;;;;;4994275;28;96736;-74
2022/09/24 07:28:27;;;;;;;53.47;40.30;;;16.50;99.90;;;;;;4977282;28;92476;-74
2022/09/24 07:30:59;;;;;;;51.88;39.72;;;16.50;99.90;;;;;;4977475;28;92551;-74
2022/09/24 07:33:26;;;;;;;51.17;40.40;;;16.60;99.90;;;;;;4993978;28;95670;-74
2022/09/24 07:35:53;;;;;;;51.45;39.30;;;16.60;99.90;;;;;;4994074;28;95419;-74
2022/09/24 07:38:20;;;;;;;48.95;39.45;;;16.60;99.90;;;;;;4994216;28;92576;-74
2022/09/24 07:40:48;;;;;;;48.10;37.63;;;16.60;99.90;;;;;;4995268;28;92408;-74
2022/09/24 07:43:15;;;;;;;52.00;39.90;;;16.70;99.90;;;;;;4994987;28;93266;-74
2022/09/24 07:45:42;;;;;;;47.65;37.13;;;16.70;99.90;;;;;;4994704;28;92874;-74
2022/09/24 07:48:09;;;;;;;55.72;41.00;;;16.70;99.90;;;;;;4995083;28;97844;-74
2022/09/24 07:50:41;;;;;;;97.20;78.20;;;16.70;99.90;;;;;;4994012;28;91779;-74
2022/09/24 07:53:13;;;;;;;44.90;35.50;;;16.80;99.90;;;;;;4993826;28;93256;-74
2022/09/24 07:55:41;;;;;;;44.70;35.35;;;16.80;99.90;;;;;;4993272;28;92999;-74
2022/09/24 07:58:11;;;;;;;45.67;34.13;;;16.80;99.90;;;;;;4992720;28;94824;-74
2022/09/24 08:00:39;;;;;;;39.30;31.67;;;16.90;99.90;;;;;;4993852;28;92549;-74
2022/09/24 08:03:06;;;;;;;39.50;30.08;;;16.90;99.90;;;;;;4977406;28;93344;-74
2022/09/24 08:05:33;;;;;;;33.42;26.23;;;16.90;99.90;;;;;;4994932;28;93073;-74
2022/09/24 08:08:00;;;;;;;26.88;20.33;;;16.90;99.90;;;;;;4994974;28;92380;-74
2022/09/24 08:10:28;;;;;;;23.40;15.80;;;17.00;99.90;;;;;;4993754;28;93145;-74
2022/09/24 08:12:56;;;;;;;21.23;16.42;;;17.00;99.90;;;;;;4976995;28;95891;-74
2022/09/24 08:15:23;;;;;;;21.85;14.25;;;17.00;99.90;;;;;;4993839;28;95334;-74
2022/09/24 08:17:50;;;;;;;18.35;11.23;;;17.10;99.90;;;;;;5009044;28;110571;-74
2022/09/24 08:20:17;;;;;;;14.85;8.25;;;17.10;99.90;;;;;;4993812;28;92526;-74
2022/09/24 08:22:44;;;;;;;18.85;9.07;;;17.10;99.90;;;;;;4992494;28;95722;-74
2022/09/24 08:25:11;;;;;;;18.10;8.43;;;17.10;99.90;;;;;;4995320;28;95468;-74
2022/09/24 08:27:38;;;;;;;9.85;5.53;;;17.10;99.90;;;;;;4995080;28;92414;-74
2022/09/24 08:30:05;;;;;;;11.20;4.57;;;17.20;99.90;;;;;;4994169;28;92541;-74
2022/09/24 08:32:32;;;;;;;10.73;5.00;;;17.20;99.90;;;;;;4994713;28;93226;-74
2022/09/24 08:34:59;;;;;;;8.57;2.90;;;17.20;99.90;;;;;;4977449;28;94240;-74
2022/09/24 08:37:27;;;;;;;4.97;2.65;;;17.20;99.90;;;;;;4995000;28;92418;-74
2022/09/24 08:39:54;;;;;;;9.48;2.92;;;17.20;99.90;;;;;;4994299;28;91773;-74
2022/09/24 08:42:34;;;;;;;8.95;2.58;;;17.20;99.90;;;;;;4994925;28;93982;-74
2022/09/24 08:47:53;;;;;;;5.45;1.85;;;17.10;99.90;;;;;;4992270;28;94855;-74
2022/09/24 08:50:28;;;;;;;5.95;1.92;;;17.10;99.90;;;;;;4993593;28;92545;-74
2022/09/24 08:53:09;;;;;;;10.07;2.70;;;17.10;99.90;;;;;;4995160;28;93322;-74
2022/09/24 08:55:47;;;;;;;8.52;2.53;;;17.10;99.90;;;;;;4993355;28;95529;-74
2022/09/24 08:58:51;;;;;;;9.60;2.50;;;17.10;99.90;;;;;;4996929;28;92477;-74
2022/09/24 09:01:34;;;;;;;7.18;2.05;;;17.20;99.90;;;;;;4997377;28;92512;-74
2022/09/24 09:04:19;;;;;;;9.13;2.67;;;17.10;99.90;;;;;;4998421;28;93288;-74
2022/09/24 09:07:27;;;;;;;9.80;2.30;;;17.10;99.90;;;;;;4998623;28;91727;-74
2022/09/24 09:10:16;;;;;;;6.65;2.42;;;17.20;99.90;;;;;;4967466;28;92555;-74
2022/09/24 09:12:53;;;;;;;6.85;2.10;;;17.20;99.90;;;;;;4998179;28;92385;-74
2022/09/24 09:15:33;;;;;;;8.60;3.05;;;17.30;99.90;;;;;;4996993;28;95621;-74
2022/09/24 09:18:09;;;;;;;12.60;2.80;;;17.50;99.90;;;;;;4997465;28;95454;-74
2022/09/24 09:20:42;;;;;;;7.53;3.13;;;17.40;99.90;;;;;;4996967;28;92465;-74
2022/09/24 09:23:15;;;;;;;9.00;2.40;;;17.60;99.90;;;;;;4980245;28;92497;-74
2022/09/24 09:25:54;;;;;;;7.60;3.15;;;17.80;99.90;;;;;;4997862;28;93155;-74
2022/09/24 09:28:21;;;;;;;14.15;2.83;;;17.90;99.90;;;;;;4998204;28;95386;-74
2022/09/24 09:31:02;;;;;;;8.93;3.08;;;17.90;99.90;;;;;;4997850;28;92448;-74
2022/09/24 09:33:35;;;;;;;12.48;4.00;;;17.90;99.90;;;;;;4998500;28;91699;-74
2022/09/24 09:36:44;;;;;;;13.68;4.68;;;18.00;99.90;;;;;;4998203;28;92509;-74
2022/09/24 09:39:39;;;;;;;15.73;2.63;;;17.90;99.90;;;;;;4996219;28;95737;-74
2022/09/24 09:42:27;;;;;;;8.45;3.45;;;17.90;99.90;;;;;;4994930;28;94979;-74
2022/09/24 09:44:55;;;;;;;10.85;3.22;;;17.80;99.90;;;;;;4979565;28;92497;-74
2022/09/24 09:47:52;;;;;;;10.65;2.78;;;17.60;99.90;;;;;;4996242;28;93271;-74
2022/09/24 09:50:37;;;;;;;7.82;3.20;;;17.60;99.90;;;;;;4995913;28;95600;-74
2022/09/24 09:53:04;;;;;;;7.65;2.70;;;17.30;99.90;;;;;;4997742;28;92552;-74
2022/09/24 09:55:35;;;;;;;9.15;1.80;;;17.20;99.90;;;;;;4996370;28;92434;-74
2022/09/24 09:58:14;;;;;;;6.88;2.10;;;17.20;99.90;;;;;;4996965;28;93247;-74
2022/09/24 10:00:41;;;;;;;8.05;2.05;;;17.20;99.90;;;;;;4979450;28;95862;-74
2022/09/24 10:03:27;;;;;;;9.30;2.90;;;17.20;99.90;;;;;;4997380;28;92375;-74
2022/09/24 10:06:04;;;;;;;9.48;2.05;;;17.20;99.90;;;;;;4979369;28;92870;-74
2022/09/24 10:08:31;;;;;;;7.28;3.05;;;17.20;99.90;;;;;;4993459;28;95803;-74
2022/09/24 10:11:00;;;;;;;7.75;2.13;;;17.20;99.90;;;;;;4995467;28;97232;-74
2022/09/24 10:13:28;;;;;;;10.27;2.72;;;17.10;99.90;;;;;;4996987;28;92361;-74
2022/09/24 10:16:00;;;;;;;5.95;1.92;;;17.10;99.90;;;;;;4979338;28;92528;-75
2022/09/24 10:18:37;;;;;;;7.27;3.30;;;17.10;99.90;;;;;;4996753;28;93356;-74
2022/09/24 10:21:08;;;;;;;7.03;3.40;;;17.10;99.90;;;;;;4997124;28;92863;-74
2022/09/24 10:23:40;;;;;;;5.38;2.65;;;17.10;99.90;;;;;;4995755;28;92627;-74
2022/09/24 10:26:08;;;;;;;8.60;2.20;;;17.10;99.90;;;;;;4997487;28;91721;-75
2022/09/24 10:31:33;;;;;;;7.18;2.55;;;17.00;99.90;;;;;;4995358;28;95528;-74
2022/09/24 10:34:01;;;;;;;8.68;2.58;;;17.00;99.90;;;;;;4994480;28;94883;-74
2022/09/24 10:36:31;;;;;;;4.78;2.33;;;17.00;99.90;;;;;;4978906;28;92516;-74
2022/09/24 10:39:07;;;;;;;7.18;2.72;;;17.00;99.90;;;;;;4996575;28;93543;-74
2022/09/24 10:41:34;;;;;;;10.05;3.40;;;16.90;99.90;;;;;;4978874;28;94308;-74
2022/09/24 10:44:10;;;;;;;8.63;2.50;;;16.80;99.90;;;;;;4995246;28;92676;-74
2022/09/24 10:47:03;;;;;;;8.35;2.20;;;16.80;99.90;;;;;;4995018;28;92540;-74
2022/09/24 10:49:58;;;;;;;6.27;3.70;;;16.80;99.90;;;;;;4996547;28;93751;-74
2022/09/24 10:52:46;;;;;;;13.05;3.05;;;16.80;99.90;;;;;;4996952;28;92980;-74
2022/09/24 10:55:34;;;;;;;8.98;1.70;;;16.80;99.90;;;;;;4996904;28;92547;-74
2022/09/24 10:58:35;;;;;;;6.75;2.25;;;16.80;99.90;;;;;;4996834;28;92434;-74
2022/09/24 11:01:23;;;;;;;8.43;3.00;;;16.90;99.90;;;;;;4995234;28;95687;-74
2022/09/24 11:04:17;;;;;;;6.30;1.70;;;16.90;99.90;;;;;;4994731;28;98342;-74
2022/09/24 11:07:06;;;;;;;7.65;1.90;;;17.00;99.90;;;;;;4995132;28;92511;-74
2022/09/24 11:10:08;;;;;;;4.68;1.40;;;17.00;99.90;;;;;;4995197;28;92532;-75
2022/09/24 11:12:51;;;;;;;7.90;2.55;;;17.00;99.90;;;;;;4996348;28;93380;-74
2022/09/24 11:15:42;;;;;;;10.85;1.85;;;17.00;99.90;;;;;;4994949;28;93008;-74
2022/09/24 11:18:35;;;;;;;5.55;1.60;;;17.00;99.90;;;;;;4995949;28;93004;-74
2022/09/24 11:21:16;;;;;;;3.90;1.63;;;17.00;99.90;;;;;;4978222;28;91747;-75
2022/09/24 11:23:54;;;;;;;9.30;2.60;;;17.00;99.90;;;;;;4996272;28;93376;-75
2022/09/24 11:26:26;;;;;;;5.18;1.50;;;17.00;99.90;;;;;;4995044;28;92995;-74
2022/09/24 11:28:59;;;;;;;5.07;2.25;;;17.00;99.90;;;;;;4993581;28;95411;-75
2022/09/24 11:31:26;;;;;;;4.60;1.90;;;17.10;99.90;;;;;;4996385;28;92418;-75
2022/09/24 11:34:21;;;;;;;4.30;2.03;;;17.10;99.90;;;;;;4994102;28;95750;-74
2022/09/24 11:37:07;;;;;;;5.22;1.50;;;17.10;99.90;;;;;;4994014;28;95954;-74
2022/09/24 11:39:56;;;;;;;10.13;2.55;;;17.10;99.90;;;;;;4994830;28;92552;-74
2022/09/24 11:42:33;;;;;;;7.00;2.40;;;17.00;99.90;;;;;;4978067;28;92540;-74
2022/09/24 11:45:10;;;;;;;7.30;2.75;;;17.00;99.90;;;;;;4995541;28;93205;-74
2022/09/24 11:47:43;;;;;;;10.40;2.55;;;17.00;99.90;;;;;;4996343;28;91898;-74
2022/09/24 11:50:25;;;;;;;5.70;1.92;;;17.00;99.90;;;;;;4977872;28;92506;-74
2022/09/24 11:53:02;;;;;;;7.68;2.25;;;17.00;99.90;;;;;;4984832;28;92619;-74
2022/09/24 11:55:50;;;;;;;6.38;2.42;;;17.00;99.90;;;;;;4974676;28;95704;-74
2022/09/24 11:58:26;;;;;;;7.45;3.53;;;17.00;99.90;;;;;;4990866;28;98119;-74
2022/09/24 12:00:58;;;;;;;6.90;2.58;;;16.90;99.90;;;;;;4975991;28;92531;-74
2022/09/24 12:03:35;;;;;;;5.22;1.60;;;16.80;99.90;;;;;;4976160;28;92349;-74
2022/09/24 12:06:11;;;;;;;3.60;2.42;;;16.90;99.90;;;;;;4974313;28;93427;-74
2022/09/24 12:09:15;;;;;;;4.60;1.80;;;16.80;99.90;;;;;;4975988;28;93079;-74
2022/09/24 12:11:49;;;;;;;3.78;1.73;;;16.80;99.90;;;;;;4974621;28;92487;-74
2022/09/24 12:14:18;;;;;;;9.50;2.58;;;16.80;99.90;;;;;;4975913;28;91727;-74
2022/09/24 12:16:50;;;;;;;8.35;2.45;;;16.70;99.90;;;;;;4975519;28;93209;-74
2022/09/24 12:19:27;;;;;;;6.20;1.85;;;16.70;99.90;;;;;;4973546;28;93002;-75
2022/09/24 12:21:57;;;;;;;4.35;1.60;;;16.70;99.90;;;;;;4975056;28;95743;-75
2022/09/24 12:24:37;;;;;;;5.07;2.05;;;16.60;99.90;;;;;;4975733;28;92398;-75
2022/09/24 12:27:15;;;;;;;9.38;2.35;;;16.60;99.90;;;;;;4974394;28;93219;-74
2022/09/24 12:33:00;;;;;;;8.25;2.30;;;16.60;99.90;;;;;;4961770;28;92537;-74
2022/09/24 12:35:27;;;;;;;4.88;2.17;;;16.40;99.90;;;;;;4977692;28;92569;-74
2022/09/24 12:38:03;;;;;;;6.97;3.03;;;16.50;99.90;;;;;;4961097;28;96059;-74
2022/09/24 12:40:51;;;;;;;6.03;2.45;;;16.60;99.90;;;;;;4979311;28;92804;-74
2022/09/24 12:43:28;;;;;;;5.22;2.58;;;16.70;99.90;;;;;;4978955;28;92443;-74
2022/09/24 12:46:00;;;;;;;6.10;2.78;;;16.70;99.90;;;;;;4977517;28;92456;-74
2022/09/24 12:48:30;;;;;;;4.63;3.08;;;16.70;99.90;;;;;;4976033;28;98282;-74
2022/09/24 12:51:00;;;;;;;6.63;2.85;;;16.60;99.90;;;;;;4976954;28;97934;-74
2022/09/24 12:53:36;;;;;;;4.25;2.60;;;16.70;99.90;;;;;;4976678;28;92597;-74
2022/09/24 12:56:04;;;;;;;6.45;2.70;;;16.80;99.90;;;;;;4977002;28;92535;-74
2022/09/24 12:58:40;;;;;;;6.63;3.75;;;16.70;99.90;;;;;;4977152;28;93288;-74
2022/09/24 13:01:27;;;;;;;8.57;2.40;;;16.80;99.90;;;;;;4978205;28;92962;-74
2022/09/24 13:04:12;;;;;;;6.53;2.88;;;16.80;99.90;;;;;;4977642;28;92426;-74
2022/09/24 13:06:41;;;;;;;7.10;2.60;;;16.70;99.90;;;;;;4978702;28;91705;-75
2022/09/24 13:09:30;;;;;;;5.63;2.65;;;16.70;99.90;;;;;;4978143;28;93300;-74
2022/09/24 13:12:16;;;;;;;6.70;3.83;;;16.80;99.90;;;;;;4978631;28;92977;-74
2022/09/24 13:14:56;;;;;;;8.38;4.35;;;16.80;99.90;;;;;;4977281;28;94779;-74